sensor_id;sensor_type;location;lat;lon;timestamp;temperature;humidity
17346;DHT22;8790;53.590;10.002;2022-07-10T00:02:09;15.80;99.90
17346;DHT22;8790;53.590;10.002;2022-07-10T00:04:41;15.70;99.90
17346;DHT22;8790;53.590;10.002;2022-07-10T00:07:13;15.70;99.90
17346;DHT22;8790;53.590;10.002;2022-07-10T00:09:45;15.80;99.90
17346;DHT22;8790;53.590;10.002;2022-07-10T00:12:17;15.70;99.90
17346;DHT22;8790;53.590;10.002;2022-07-10T00:14:48;15.60;99.90
17346;DHT22;8790;53.590;10.002;2022-07-10T00:17:21;15.60;99.90
17346;DHT22;8790;53.590;10.002;2022-07-10T00:19:53;15.60;99.90
17346;DHT22;8790;53.590;10.002;2022-07-10T00:22:25;15.60;99.90
17346;DHT22;8790;53.590;10.002;2022-07-10T00:24:57;15.60;99.90
17346;DHT22;8790;53.590;10.002;2022-07-10T00:27:29;15.60;99.90
17346;DHT22;8790;53.590;10.002;2022-07-10T00:30:01;15.60;99.90
17346;DHT22;8790;53.590;10.002;2022-07-10T00:32:34;15.60;99.90
17346;DHT22;8790;53.590;10.002;2022-07-10T00:35:06;15.60;99.90
17346;DHT22;8790;53.590;10.002;2022-07-10T00:37:39;15.60;99.90
17346;DHT22;8790;53.590;10.002;2022-07-10T00:40:11;15.50;99.90
17346;DHT22;8790;53.590;10.002;2022-07-10T00:42:43;15.40;99.90
17346;DHT22;8790;53.590;10.002;2022-07-10T00:45:14;15.50;99.90
17346;DHT22;8790;53.590;10.002;2022-07-10T00:47:47;15.50;99.90
17346;DHT22;8790;53.590;10.002;2022-07-10T00:50:19;15.60;99.90
17346;DHT22;8790;53.590;10.002;2022-07-10T00:52:51;15.50;99.90
17346;DHT22;8790;53.590;10.002;2022-07-10T00:55:23;15.50;99.90
17346;DHT22;8790;53.590;10.002;2022-07-10T00:57:55;15.50;99.90
17346;DHT22;8790;53.590;10.002;2022-07-10T01:00:27;15.40;99.90
17346;DHT22;8790;53.590;10.002;2022-07-10T01:03:00;15.50;99.90
17346;DHT22;8790;53.590;10.002;2022-07-10T01:05:33;15.50;99.90
17346;DHT22;8790;53.590;10.002;2022-07-10T01:08:05;15.50;99.90
17346;DHT22;8790;53.590;10.002;2022-07-10T01:10:37;15.60;99.90
17346;DHT22;8790;53.590;10.002;2022-07-10T01:13:10;15.50;99.90
17346;DHT22;8790;53.590;10.002;2022-07-10T01:15:42;15.50;99.90
17346;DHT22;8790;53.590;10.002;2022-07-10T01:18:15;15.60;99.90
17346;DHT22;8790;53.590;10.002;2022-07-10T01:20:51;15.60;99.90
17346;DHT22;8790;53.590;10.002;2022-07-10T01:23:23;15.50;99.90
17346;DHT22;8790;53.590;10.002;2022-07-10T01:25:55;15.50;99.90
17346;DHT22;8790;53.590;10.002;2022-07-10T01:28:27;15.50;99.90
17346;DHT22;8790;53.590;10.002;2022-07-10T01:30:58;15.50;99.90
17346;DHT22;8790;53.590;10.002;2022-07-10T01:33:33;15.40;99.90
17346;DHT22;8790;53.590;10.002;2022-07-10T01:36:07;15.40;99.90
17346;DHT22;8790;53.590;10.002;2022-07-10T01:38:39;15.40;99.90
17346;DHT22;8790;53.590;10.002;2022-07-10T01:41:12;15.50;99.90
17346;DHT22;8790;53.590;10.002;2022-07-10T01:43:44;15.50;99.90
17346;DHT22;8790;53.590;10.002;2022-07-10T01:46:15;15.40;99.90
17346;DHT22;8790;53.590;10.002;2022-07-10T01:48:48;15.40;99.90
17346;DHT22;8790;53.590;10.002;2022-07-10T01:51:21;15.40;99.90
17346;DHT22;8790;53.590;10.002;2022-07-10T01:53:52;15.30;99.90
17346;DHT22;8790;53.590;10.002;2022-07-10T01:56:25;15.40;99.90
17346;DHT22;8790;53.590;10.002;2022-07-10T01:58:57;15.40;99.90
17346;DHT22;8790;53.590;10.002;2022-07-10T02:01:31;15.40;99.90
17346;DHT22;8790;53.590;10.002;2022-07-10T02:04:03;15.40;99.90
17346;DHT22;8790;53.590;10.002;2022-07-10T02:06:53;15.40;99.90
17346;DHT22;8790;53.590;10.002;2022-07-10T02:09:25;15.40;99.90
17346;DHT22;8790;53.590;10.002;2022-07-10T02:11:57;15.50;99.90
17346;DHT22;8790;53.590;10.002;2022-07-10T02:14:29;15.40;99.90
17346;DHT22;8790;53.590;10.002;2022-07-10T02:17:01;15.40;99.90
17346;DHT22;8790;53.590;10.002;2022-07-10T02:19:33;15.40;99.90
17346;DHT22;8790;53.590;10.002;2022-07-10T02:22:06;15.40;99.90
17346;DHT22;8790;53.590;10.002;2022-07-10T02:24:38;15.30;99.90
17346;DHT22;8790;53.590;10.002;2022-07-10T02:27:10;15.30;99.90
17346;DHT22;8790;53.590;10.002;2022-07-10T02:29:41;15.30;99.90
17346;DHT22;8790;53.590;10.002;2022-07-10T02:32:13;15.40;99.90
17346;DHT22;8790;53.590;10.002;2022-07-10T02:34:45;15.40;99.90
17346;DHT22;8790;53.590;10.002;2022-07-10T02:37:18;15.30;99.90
17346;DHT22;8790;53.590;10.002;2022-07-10T02:39:50;15.30;99.90
17346;DHT22;8790;53.590;10.002;2022-07-10T02:42:22;15.30;99.90
17346;DHT22;8790;53.590;10.002;2022-07-10T02:44:53;15.40;99.90
17346;DHT22;8790;53.590;10.002;2022-07-10T02:47:25;15.30;99.90
17346;DHT22;8790;53.590;10.002;2022-07-10T02:49:57;15.30;99.90
17346;DHT22;8790;53.590;10.002;2022-07-10T02:52:30;15.40;99.90
17346;DHT22;8790;53.590;10.002;2022-07-10T02:55:02;15.40;99.90
17346;DHT22;8790;53.590;10.002;2022-07-10T02:57:34;15.40;99.90
17346;DHT22;8790;53.590;10.002;2022-07-10T03:00:06;15.30;99.90
17346;DHT22;8790;53.590;10.002;2022-07-10T03:02:38;15.30;99.90
17346;DHT22;8790;53.590;10.002;2022-07-10T03:05:10;15.20;99.90
17346;DHT22;8790;53.590;10.002;2022-07-10T03:07:43;15.30;99.90
17346;DHT22;8790;53.590;10.002;2022-07-10T03:10:15;15.30;99.90
17346;DHT22;8790;53.590;10.002;2022-07-10T03:12:47;15.30;99.90
17346;DHT22;8790;53.590;10.002;2022-07-10T03:15:18;15.20;99.90
17346;DHT22;8790;53.590;10.002;2022-07-10T03:17:50;15.30;99.90
17346;DHT22;8790;53.590;10.002;2022-07-10T03:20:22;15.20;99.90
17346;DHT22;8790;53.590;10.002;2022-07-10T03:22:55;15.30;99.90
17346;DHT22;8790;53.590;10.002;2022-07-10T03:25:27;15.30;99.90
17346;DHT22;8790;53.590;10.002;2022-07-10T03:27:59;15.30;99.90
17346;DHT22;8790;53.590;10.002;2022-07-10T03:30:31;15.30;99.90
17346;DHT22;8790;53.590;10.002;2022-07-10T03:33:02;15.30;99.90
17346;DHT22;8790;53.590;10.002;2022-07-10T03:35:34;15.30;99.90
17346;DHT22;8790;53.590;10.002;2022-07-10T03:38:07;15.40;99.90
17346;DHT22;8790;53.590;10.002;2022-07-10T03:40:39;15.30;99.90
17346;DHT22;8790;53.590;10.002;2022-07-10T03:43:11;15.40;99.90
17346;DHT22;8790;53.590;10.002;2022-07-10T03:45:42;15.40;99.90
17346;DHT22;8790;53.590;10.002;2022-07-10T03:48:14;15.40;99.90
17346;DHT22;8790;53.590;10.002;2022-07-10T03:50:49;15.40;99.90
17346;DHT22;8790;53.590;10.002;2022-07-10T03:53:22;15.30;99.90
17346;DHT22;8790;53.590;10.002;2022-07-10T03:55:54;15.40;99.90
17346;DHT22;8790;53.590;10.002;2022-07-10T03:58:26;15.50;99.90
17346;DHT22;8790;53.590;10.002;2022-07-10T04:00:57;15.50;99.90
17346;DHT22;8790;53.590;10.002;2022-07-10T04:03:28;15.50;99.90
17346;DHT22;8790;53.590;10.002;2022-07-10T04:06:00;15.40;99.90
17346;DHT22;8790;53.590;10.002;2022-07-10T04:08:33;15.40;99.90
17346;DHT22;8790;53.590;10.002;2022-07-10T04:11:05;15.40;99.90
17346;DHT22;8790;53.590;10.002;2022-07-10T04:13:37;15.40;99.90
17346;DHT22;8790;53.590;10.002;2022-07-10T04:16:08;15.30;99.90
17346;DHT22;8790;53.590;10.002;2022-07-10T04:18:43;15.40;99.90
17346;DHT22;8790;53.590;10.002;2022-07-10T04:21:14;15.40;99.90
17346;DHT22;8790;53.590;10.002;2022-07-10T04:23:48;15.40;99.90
17346;DHT22;8790;53.590;10.002;2022-07-10T04:26:19;15.50;99.90
17346;DHT22;8790;53.590;10.002;2022-07-10T04:28:51;15.30;99.90
17346;DHT22;8790;53.590;10.002;2022-07-10T04:31:23;15.30;99.90
17346;DHT22;8790;53.590;10.002;2022-07-10T04:33:54;15.40;99.90
17346;DHT22;8790;53.590;10.002;2022-07-10T04:36:27;15.40;99.90
17346;DHT22;8790;53.590;10.002;2022-07-10T04:39:02;15.30;99.90
17346;DHT22;8790;53.590;10.002;2022-07-10T04:41:34;15.40;99.90
17346;DHT22;8790;53.590;10.002;2022-07-10T04:44:05;15.40;99.90
17346;DHT22;8790;53.590;10.002;2022-07-10T04:46:37;15.40;99.90
17346;DHT22;8790;53.590;10.002;2022-07-10T04:49:09;15.40;99.90
17346;DHT22;8790;53.590;10.002;2022-07-10T04:51:40;15.30;99.90
17346;DHT22;8790;53.590;10.002;2022-07-10T04:54:14;15.40;99.90
17346;DHT22;8790;53.590;10.002;2022-07-10T04:56:45;15.30;99.90
17346;DHT22;8790;53.590;10.002;2022-07-10T04:59:17;15.30;99.90
17346;DHT22;8790;53.590;10.002;2022-07-10T05:01:49;15.30;99.90
17346;DHT22;8790;53.590;10.002;2022-07-10T05:04:20;15.30;99.90
17346;DHT22;8790;53.590;10.002;2022-07-10T05:06:52;15.30;99.90
17346;DHT22;8790;53.590;10.002;2022-07-10T05:09:25;15.20;99.90
17346;DHT22;8790;53.590;10.002;2022-07-10T05:11:57;15.20;99.90
17346;DHT22;8790;53.590;10.002;2022-07-10T05:14:28;15.20;99.90
17346;DHT22;8790;53.590;10.002;2022-07-10T05:17:00;15.20;99.90
17346;DHT22;8790;53.590;10.002;2022-07-10T05:19:32;15.30;99.90
17346;DHT22;8790;53.590;10.002;2022-07-10T05:22:04;15.40;99.90
17346;DHT22;8790;53.590;10.002;2022-07-10T05:24:37;15.40;99.90
17346;DHT22;8790;53.590;10.002;2022-07-10T05:27:08;15.40;99.90
17346;DHT22;8790;53.590;10.002;2022-07-10T05:29:40;15.40;99.90
17346;DHT22;8790;53.590;10.002;2022-07-10T05:32:12;15.40;99.90
17346;DHT22;8790;53.590;10.002;2022-07-10T05:34:44;15.40;99.90
17346;DHT22;8790;53.590;10.002;2022-07-10T05:37:16;15.40;99.90
17346;DHT22;8790;53.590;10.002;2022-07-10T05:39:49;15.30;99.90
17346;DHT22;8790;53.590;10.002;2022-07-10T05:42:21;15.20;99.90
17346;DHT22;8790;53.590;10.002;2022-07-10T05:44:52;15.30;99.90
17346;DHT22;8790;53.590;10.002;2022-07-10T05:47:24;15.30;99.90
17346;DHT22;8790;53.590;10.002;2022-07-10T05:49:56;15.30;99.90
17346;DHT22;8790;53.590;10.002;2022-07-10T05:52:27;15.40;99.90
17346;DHT22;8790;53.590;10.002;2022-07-10T05:55:01;15.40;99.90
17346;DHT22;8790;53.590;10.002;2022-07-10T05:57:32;15.40;99.90
17346;DHT22;8790;53.590;10.002;2022-07-10T06:00:06;15.40;99.90
17346;DHT22;8790;53.590;10.002;2022-07-10T06:02:47;15.50;99.90
17346;DHT22;8790;53.590;10.002;2022-07-10T06:05:19;15.50;99.90
17346;DHT22;8790;53.590;10.002;2022-07-10T06:07:52;15.50;99.90
17346;DHT22;8790;53.590;10.002;2022-07-10T06:10:25;15.40;99.90
17346;DHT22;8790;53.590;10.002;2022-07-10T06:12:56;15.40;99.90
17346;DHT22;8790;53.590;10.002;2022-07-10T06:15:28;15.50;99.90
17346;DHT22;8790;53.590;10.002;2022-07-10T06:18:00;15.50;99.90
17346;DHT22;8790;53.590;10.002;2022-07-10T06:20:31;15.50;99.90
17346;DHT22;8790;53.590;10.002;2022-07-10T06:23:03;15.50;99.90
17346;DHT22;8790;53.590;10.002;2022-07-10T06:25:36;15.60;99.90
17346;DHT22;8790;53.590;10.002;2022-07-10T06:28:08;15.60;99.90
17346;DHT22;8790;53.590;10.002;2022-07-10T06:30:40;15.60;99.90
17346;DHT22;8790;53.590;10.002;2022-07-10T06:33:11;15.50;99.90
17346;DHT22;8790;53.590;10.002;2022-07-10T06:35:43;15.50;99.90
17346;DHT22;8790;53.590;10.002;2022-07-10T06:38:15;15.60;99.90
17346;DHT22;8790;53.590;10.002;2022-07-10T06:40:48;15.60;99.90
17346;DHT22;8790;53.590;10.002;2022-07-10T06:43:20;15.50;99.90
17346;DHT22;8790;53.590;10.002;2022-07-10T06:45:52;15.50;99.90
17346;DHT22;8790;53.590;10.002;2022-07-10T06:48:24;15.50;99.90
17346;DHT22;8790;53.590;10.002;2022-07-10T06:50:57;15.50;99.90
17346;DHT22;8790;53.590;10.002;2022-07-10T06:53:29;15.50;99.90
17346;DHT22;8790;53.590;10.002;2022-07-10T06:56:02;15.60;99.90
17346;DHT22;8790;53.590;10.002;2022-07-10T06:58:34;15.60;99.90
17346;DHT22;8790;53.590;10.002;2022-07-10T07:01:06;15.70;99.90
17346;DHT22;8790;53.590;10.002;2022-07-10T07:03:38;15.70;99.90
17346;DHT22;8790;53.590;10.002;2022-07-10T07:06:10;15.70;99.90
17346;DHT22;8790;53.590;10.002;2022-07-10T07:08:41;15.70;99.90
17346;DHT22;8790;53.590;10.002;2022-07-10T07:11:14;15.80;99.90
17346;DHT22;8790;53.590;10.002;2022-07-10T07:13:46;15.80;99.90
17346;DHT22;8790;53.590;10.002;2022-07-10T07:16:18;15.90;99.90
17346;DHT22;8790;53.590;10.002;2022-07-10T07:18:50;16.00;99.90
17346;DHT22;8790;53.590;10.002;2022-07-10T07:21:23;16.00;99.90
17346;DHT22;8790;53.590;10.002;2022-07-10T07:24:12;16.10;99.90
17346;DHT22;8790;53.590;10.002;2022-07-10T07:26:45;16.20;99.90
17346;DHT22;8790;53.590;10.002;2022-07-10T07:29:17;16.30;99.90
17346;DHT22;8790;53.590;10.002;2022-07-10T07:31:49;16.30;99.90
17346;DHT22;8790;53.590;10.002;2022-07-10T07:34:21;16.40;99.90
17346;DHT22;8790;53.590;10.002;2022-07-10T07:36:53;16.40;99.90
17346;DHT22;8790;53.590;10.002;2022-07-10T07:39:24;16.40;99.90
17346;DHT22;8790;53.590;10.002;2022-07-10T07:41:57;16.40;99.90
17346;DHT22;8790;53.590;10.002;2022-07-10T07:44:29;16.50;99.90
17346;DHT22;8790;53.590;10.002;2022-07-10T07:47:01;16.50;99.90
17346;DHT22;8790;53.590;10.002;2022-07-10T07:49:33;16.60;99.90
17346;DHT22;8790;53.590;10.002;2022-07-10T07:52:04;16.60;99.90
17346;DHT22;8790;53.590;10.002;2022-07-10T07:54:36;16.60;99.90
17346;DHT22;8790;53.590;10.002;2022-07-10T07:57:09;16.60;99.90
17346;DHT22;8790;53.590;10.002;2022-07-10T07:59:41;16.70;99.90
17346;DHT22;8790;53.590;10.002;2022-07-10T08:02:12;16.70;99.90
17346;DHT22;8790;53.590;10.002;2022-07-10T08:04:44;16.70;99.90
17346;DHT22;8790;53.590;10.002;2022-07-10T08:07:16;16.80;99.90
17346;DHT22;8790;53.590;10.002;2022-07-10T08:09:48;16.90;99.90
17346;DHT22;8790;53.590;10.002;2022-07-10T08:12:21;16.90;99.90
17346;DHT22;8790;53.590;10.002;2022-07-10T08:14:53;16.90;99.90
17346;DHT22;8790;53.590;10.002;2022-07-10T08:17:25;17.10;99.90
17346;DHT22;8790;53.590;10.002;2022-07-10T08:19:56;17.10;99.90
17346;DHT22;8790;53.590;10.002;2022-07-10T08:22:28;17.10;99.90
17346;DHT22;8790;53.590;10.002;2022-07-10T08:25:00;17.10;99.90
17346;DHT22;8790;53.590;10.002;2022-07-10T08:27:33;17.10;99.90
17346;DHT22;8790;53.590;10.002;2022-07-10T08:30:06;17.10;99.90
17346;DHT22;8790;53.590;10.002;2022-07-10T08:32:39;17.00;99.90
17346;DHT22;8790;53.590;10.002;2022-07-10T08:35:11;17.10;99.90
17346;DHT22;8790;53.590;10.002;2022-07-10T08:37:44;17.20;99.90
17346;DHT22;8790;53.590;10.002;2022-07-10T08:40:16;17.30;99.90
17346;DHT22;8790;53.590;10.002;2022-07-10T08:42:50;17.30;99.90
17346;DHT22;8790;53.590;10.002;2022-07-10T08:45:22;17.30;99.90
17346;DHT22;8790;53.590;10.002;2022-07-10T08:47:56;17.40;99.90
17346;DHT22;8790;53.590;10.002;2022-07-10T08:50:29;17.30;99.90
17346;DHT22;8790;53.590;10.002;2022-07-10T08:53:07;17.40;99.90
17346;DHT22;8790;53.590;10.002;2022-07-10T08:55:39;17.40;99.90
17346;DHT22;8790;53.590;10.002;2022-07-10T08:58:12;17.40;99.90
17346;DHT22;8790;53.590;10.002;2022-07-10T09:00:44;17.40;99.90
17346;DHT22;8790;53.590;10.002;2022-07-10T09:03:16;17.50;99.90
17346;DHT22;8790;53.590;10.002;2022-07-10T09:05:48;17.50;99.90
17346;DHT22;8790;53.590;10.002;2022-07-10T09:08:22;17.60;99.90
17346;DHT22;8790;53.590;10.002;2022-07-10T09:11:12;17.60;99.90
17346;DHT22;8790;53.590;10.002;2022-07-10T09:13:53;17.60;99.90
17346;DHT22;8790;53.590;10.002;2022-07-10T09:16:27;17.70;99.90
17346;DHT22;8790;53.590;10.002;2022-07-10T09:19:15;17.70;99.90
17346;DHT22;8790;53.590;10.002;2022-07-10T09:21:48;17.70;99.90
17346;DHT22;8790;53.590;10.002;2022-07-10T09:24:20;17.70;99.90
17346;DHT22;8790;53.590;10.002;2022-07-10T09:27:00;17.60;99.90
17346;DHT22;8790;53.590;10.002;2022-07-10T09:29:45;17.60;99.90
17346;DHT22;8790;53.590;10.002;2022-07-10T09:32:17;17.70;99.90
17346;DHT22;8790;53.590;10.002;2022-07-10T09:34:50;17.70;99.90
17346;DHT22;8790;53.590;10.002;2022-07-10T09:37:42;17.60;99.90
17346;DHT22;8790;53.590;10.002;2022-07-10T09:40:14;17.70;99.90
17346;DHT22;8790;53.590;10.002;2022-07-10T09:42:46;17.80;99.90
17346;DHT22;8790;53.590;10.002;2022-07-10T09:45:21;17.70;99.90
17346;DHT22;8790;53.590;10.002;2022-07-10T09:47:55;17.80;99.90
17346;DHT22;8790;53.590;10.002;2022-07-10T09:50:30;17.80;99.90
17346;DHT22;8790;53.590;10.002;2022-07-10T09:53:05;17.80;99.90
17346;DHT22;8790;53.590;10.002;2022-07-10T09:55:37;17.80;99.90
17346;DHT22;8790;53.590;10.002;2022-07-10T09:58:09;17.80;99.90
17346;DHT22;8790;53.590;10.002;2022-07-10T10:00:43;17.90;99.90
17346;DHT22;8790;53.590;10.002;2022-07-10T10:03:19;17.90;99.90
17346;DHT22;8790;53.590;10.002;2022-07-10T10:05:53;18.00;99.90
17346;DHT22;8790;53.590;10.002;2022-07-10T10:08:29;18.00;99.90
17346;DHT22;8790;53.590;10.002;2022-07-10T10:11:01;17.90;99.90
17346;DHT22;8790;53.590;10.002;2022-07-10T10:13:34;17.90;99.90
17346;DHT22;8790;53.590;10.002;2022-07-10T10:16:08;17.90;99.90
17346;DHT22;8790;53.590;10.002;2022-07-10T10:18:42;18.00;99.90
17346;DHT22;8790;53.590;10.002;2022-07-10T10:21:28;18.00;99.90
17346;DHT22;8790;53.590;10.002;2022-07-10T10:24:01;18.00;99.90
17346;DHT22;8790;53.590;10.002;2022-07-10T10:26:33;18.10;99.90
17346;DHT22;8790;53.590;10.002;2022-07-10T10:29:05;18.00;99.90
17346;DHT22;8790;53.590;10.002;2022-07-10T10:31:39;17.90;99.90
17346;DHT22;8790;53.590;10.002;2022-07-10T10:34:11;18.10;99.90
17346;DHT22;8790;53.590;10.002;2022-07-10T10:39:51;18.10;99.90
17346;DHT22;8790;53.590;10.002;2022-07-10T10:42:35;18.20;99.90
17346;DHT22;8790;53.590;10.002;2022-07-10T10:45:22;18.20;99.90
17346;DHT22;8790;53.590;10.002;2022-07-10T10:48:00;18.30;99.90
17346;DHT22;8790;53.590;10.002;2022-07-10T10:50:39;18.40;99.90
17346;DHT22;8790;53.590;10.002;2022-07-10T10:53:13;18.30;99.90
17346;DHT22;8790;53.590;10.002;2022-07-10T10:56:22;18.20;99.90
17346;DHT22;8790;53.590;10.002;2022-07-10T10:58:57;18.20;99.90
17346;DHT22;8790;53.590;10.002;2022-07-10T11:01:29;18.20;99.90
17346;DHT22;8790;53.590;10.002;2022-07-10T11:04:19;18.10;99.90
17346;DHT22;8790;53.590;10.002;2022-07-10T11:06:52;18.30;99.90
17346;DHT22;8790;53.590;10.002;2022-07-10T11:09:26;18.40;99.90
17346;DHT22;8790;53.590;10.002;2022-07-10T11:12:02;18.40;99.90
17346;DHT22;8790;53.590;10.002;2022-07-10T11:14:36;18.40;99.90
17346;DHT22;8790;53.590;10.002;2022-07-10T11:17:09;18.40;99.90
17346;DHT22;8790;53.590;10.002;2022-07-10T11:19:42;18.40;99.90
17346;DHT22;8790;53.590;10.002;2022-07-10T11:22:31;18.40;99.90
17346;DHT22;8790;53.590;10.002;2022-07-10T11:28:06;18.40;99.90
17346;DHT22;8790;53.590;10.002;2022-07-10T11:30:44;18.50;99.90
17346;DHT22;8790;53.590;10.002;2022-07-10T11:33:16;18.40;99.90
17346;DHT22;8790;53.590;10.002;2022-07-10T11:35:51;18.40;99.90
17346;DHT22;8790;53.590;10.002;2022-07-10T11:38:25;18.50;99.90
17346;DHT22;8790;53.590;10.002;2022-07-10T11:40:57;18.60;99.90
17346;DHT22;8790;53.590;10.002;2022-07-10T11:43:29;18.50;99.90
17346;DHT22;8790;53.590;10.002;2022-07-10T11:46:00;18.40;99.90
17346;DHT22;8790;53.590;10.002;2022-07-10T11:48:38;18.40;99.90
17346;DHT22;8790;53.590;10.002;2022-07-10T11:51:18;18.30;99.90
17346;DHT22;8790;53.590;10.002;2022-07-10T11:53:55;18.50;99.90
17346;DHT22;8790;53.590;10.002;2022-07-10T11:56:28;18.50;99.90
17346;DHT22;8790;53.590;10.002;2022-07-10T11:59:01;18.40;99.90
17346;DHT22;8790;53.590;10.002;2022-07-10T12:01:34;18.40;99.90
17346;DHT22;8790;53.590;10.002;2022-07-10T12:04:08;18.40;99.90
17346;DHT22;8790;53.590;10.002;2022-07-10T12:06:42;18.30;99.90
17346;DHT22;8790;53.590;10.002;2022-07-10T12:09:16;18.30;99.90
17346;DHT22;8790;53.590;10.002;2022-07-10T12:11:58;18.40;99.90
17346;DHT22;8790;53.590;10.002;2022-07-10T12:14:31;18.40;99.90
17346;DHT22;8790;53.590;10.002;2022-07-10T12:17:10;18.50;99.90
17346;DHT22;8790;53.590;10.002;2022-07-10T12:19:42;18.60;99.90
17346;DHT22;8790;53.590;10.002;2022-07-10T12:22:17;18.50;99.90
17346;DHT22;8790;53.590;10.002;2022-07-10T12:24:49;18.50;99.90
17346;DHT22;8790;53.590;10.002;2022-07-10T12:27:40;18.60;99.90
17346;DHT22;8790;53.590;10.002;2022-07-10T12:30:11;18.60;99.90
17346;DHT22;8790;53.590;10.002;2022-07-10T12:32:43;18.60;99.90
17346;DHT22;8790;53.590;10.002;2022-07-10T12:35:16;18.50;99.90
17346;DHT22;8790;53.590;10.002;2022-07-10T12:37:51;18.40;99.90
17346;DHT22;8790;53.590;10.002;2022-07-10T12:40:33;18.40;99.90
17346;DHT22;8790;53.590;10.002;2022-07-10T12:43:05;18.40;99.90
17346;DHT22;8790;53.590;10.002;2022-07-10T12:45:37;18.30;99.90
17346;DHT22;8790;53.590;10.002;2022-07-10T12:48:21;18.20;99.90
17346;DHT22;8790;53.590;10.002;2022-07-10T12:50:53;18.10;99.90
17346;DHT22;8790;53.590;10.002;2022-07-10T12:53:26;18.20;99.90
17346;DHT22;8790;53.590;10.002;2022-07-10T12:55:58;18.30;99.90
17346;DHT22;8790;53.590;10.002;2022-07-10T12:58:30;18.30;99.90
17346;DHT22;8790;53.590;10.002;2022-07-10T13:01:03;18.30;99.90
17346;DHT22;8790;53.590;10.002;2022-07-10T13:03:35;18.20;99.90
17346;DHT22;8790;53.590;10.002;2022-07-10T13:06:25;18.20;99.90
17346;DHT22;8790;53.590;10.002;2022-07-10T13:08:58;18.10;99.90
17346;DHT22;8790;53.590;10.002;2022-07-10T13:11:30;18.00;99.90
17346;DHT22;8790;53.590;10.002;2022-07-10T13:14:02;18.00;99.90
17346;DHT22;8790;53.590;10.002;2022-07-10T13:16:34;18.00;99.90
17346;DHT22;8790;53.590;10.002;2022-07-10T13:19:05;18.00;99.90
17346;DHT22;8790;53.590;10.002;2022-07-10T13:21:37;17.90;99.90
17346;DHT22;8790;53.590;10.002;2022-07-10T13:24:10;18.00;99.90
17346;DHT22;8790;53.590;10.002;2022-07-10T13:26:42;17.90;99.90
17346;DHT22;8790;53.590;10.002;2022-07-10T13:29:14;17.80;99.90
17346;DHT22;8790;53.590;10.002;2022-07-10T13:31:46;17.90;99.90
17346;DHT22;8790;53.590;10.002;2022-07-10T13:34:17;17.90;99.90
17346;DHT22;8790;53.590;10.002;2022-07-10T13:36:49;17.90;99.90
17346;DHT22;8790;53.590;10.002;2022-07-10T13:39:23;18.00;99.90
17346;DHT22;8790;53.590;10.002;2022-07-10T13:41:55;18.00;99.90
17346;DHT22;8790;53.590;10.002;2022-07-10T13:44:27;18.10;99.90
17346;DHT22;8790;53.590;10.002;2022-07-10T13:46:59;18.00;99.90
17346;DHT22;8790;53.590;10.002;2022-07-10T13:49:30;18.00;99.90
17346;DHT22;8790;53.590;10.002;2022-07-10T13:52:03;18.00;99.90
17346;DHT22;8790;53.590;10.002;2022-07-10T13:54:36;17.90;99.90
17346;DHT22;8790;53.590;10.002;2022-07-10T13:57:08;17.90;99.90
17346;DHT22;8790;53.590;10.002;2022-07-10T13:59:39;18.00;99.90
17346;DHT22;8790;53.590;10.002;2022-07-10T14:02:11;18.10;99.90
17346;DHT22;8790;53.590;10.002;2022-07-10T14:04:43;18.00;99.90
17346;DHT22;8790;53.590;10.002;2022-07-10T14:07:15;18.00;99.90
17346;DHT22;8790;53.590;10.002;2022-07-10T14:09:48;18.10;99.90
17346;DHT22;8790;53.590;10.002;2022-07-10T14:12:20;18.10;99.90
17346;DHT22;8790;53.590;10.002;2022-07-10T14:14:52;18.20;99.90
17346;DHT22;8790;53.590;10.002;2022-07-10T14:17:24;18.00;99.90
17346;DHT22;8790;53.590;10.002;2022-07-10T14:19:56;18.00;99.90
17346;DHT22;8790;53.590;10.002;2022-07-10T14:22:28;18.00;99.90
17346;DHT22;8790;53.590;10.002;2022-07-10T14:25:01;18.00;99.90
17346;DHT22;8790;53.590;10.002;2022-07-10T14:27:33;17.90;99.90
17346;DHT22;8790;53.590;10.002;2022-07-10T14:30:06;17.90;99.90
17346;DHT22;8790;53.590;10.002;2022-07-10T14:32:38;17.90;99.90
17346;DHT22;8790;53.590;10.002;2022-07-10T14:35:09;18.00;99.90
17346;DHT22;8790;53.590;10.002;2022-07-10T14:37:41;18.00;99.90
17346;DHT22;8790;53.590;10.002;2022-07-10T14:40:15;18.10;99.90
17346;DHT22;8790;53.590;10.002;2022-07-10T14:42:46;18.00;99.90
17346;DHT22;8790;53.590;10.002;2022-07-10T14:45:18;18.10;99.90
17346;DHT22;8790;53.590;10.002;2022-07-10T14:47:51;18.10;99.90
17346;DHT22;8790;53.590;10.002;2022-07-10T14:50:23;18.00;99.90
17346;DHT22;8790;53.590;10.002;2022-07-10T14:52:54;17.90;99.90
17346;DHT22;8790;53.590;10.002;2022-07-10T14:55:27;18.00;99.90
17346;DHT22;8790;53.590;10.002;2022-07-10T14:58:00;18.00;99.90
17346;DHT22;8790;53.590;10.002;2022-07-10T15:00:32;18.10;99.90
17346;DHT22;8790;53.590;10.002;2022-07-10T15:03:04;18.00;99.90
17346;DHT22;8790;53.590;10.002;2022-07-10T15:05:36;18.10;99.90
17346;DHT22;8790;53.590;10.002;2022-07-10T15:08:07;18.00;99.90
17346;DHT22;8790;53.590;10.002;2022-07-10T15:10:41;18.00;99.90
17346;DHT22;8790;53.590;10.002;2022-07-10T15:13:16;18.00;99.90
17346;DHT22;8790;53.590;10.002;2022-07-10T15:15:48;18.10;99.90
17346;DHT22;8790;53.590;10.002;2022-07-10T15:18:21;18.10;99.90
17346;DHT22;8790;53.590;10.002;2022-07-10T15:20:53;18.20;99.90
17346;DHT22;8790;53.590;10.002;2022-07-10T15:23:25;18.20;99.90
17346;DHT22;8790;53.590;10.002;2022-07-10T15:25:59;18.10;99.90
17346;DHT22;8790;53.590;10.002;2022-07-10T15:28:31;18.10;99.90
17346;DHT22;8790;53.590;10.002;2022-07-10T15:31:03;18.10;99.90
17346;DHT22;8790;53.590;10.002;2022-07-10T15:33:36;18.10;99.90
17346;DHT22;8790;53.590;10.002;2022-07-10T15:36:08;18.10;99.90
17346;DHT22;8790;53.590;10.002;2022-07-10T15:38:40;18.10;99.90
17346;DHT22;8790;53.590;10.002;2022-07-10T15:41:13;18.10;99.90
17346;DHT22;8790;53.590;10.002;2022-07-10T15:43:45;18.10;99.90
17346;DHT22;8790;53.590;10.002;2022-07-10T15:46:17;18.10;99.90
17346;DHT22;8790;53.590;10.002;2022-07-10T15:48:49;18.20;99.90
17346;DHT22;8790;53.590;10.002;2022-07-10T15:51:20;18.10;99.90
17346;DHT22;8790;53.590;10.002;2022-07-10T15:53:52;18.20;99.90
17346;DHT22;8790;53.590;10.002;2022-07-10T15:56:25;18.30;99.90
17346;DHT22;8790;53.590;10.002;2022-07-10T15:58:57;18.30;99.90
17346;DHT22;8790;53.590;10.002;2022-07-10T16:01:28;18.30;99.90
17346;DHT22;8790;53.590;10.002;2022-07-10T16:04:00;18.40;99.90
17346;DHT22;8790;53.590;10.002;2022-07-10T16:06:32;18.40;99.90
17346;DHT22;8790;53.590;10.002;2022-07-10T16:09:04;18.40;99.90
17346;DHT22;8790;53.590;10.002;2022-07-10T16:11:37;18.40;99.90
17346;DHT22;8790;53.590;10.002;2022-07-10T16:14:09;18.40;99.90